createdAt,value
2023-02-18T00:00:15.817Z,-17.14
2023-02-18T00:05:18.785Z,-17.22
2023-02-18T00:10:21.582Z,-17.28
2023-02-18T00:15:24.405Z,-17.22
2023-02-18T00:20:27.325Z,-17.29
2023-02-18T00:25:30.400Z,-17.41
2023-02-18T00:30:33.093Z,-17.42
2023-02-18T00:35:36.001Z,-17.44
2023-02-18T00:40:39.614Z,-17.46
2023-02-18T00:45:42.307Z,-17.54
2023-02-18T00:50:45.452Z,-17.60
2023-02-18T00:55:50.571Z,-17.68
2023-02-18T01:00:53.499Z,-17.72
2023-02-18T01:05:56.266Z,-17.81
2023-02-18T01:10:59.589Z,-17.81
2023-02-18T01:16:02.315Z,-17.88
2023-02-18T01:21:08.936Z,-17.93
2023-02-18T01:26:12.855Z,-17.99
2023-02-18T01:31:17.580Z,-18.09
2023-02-18T01:36:20.891Z,-18.17
2023-02-18T01:41:23.751Z,-18.19
2023-02-18T01:46:26.452Z,-18.27
2023-02-18T01:51:32.443Z,-18.24
2023-02-18T01:57:00.930Z,-18.27
2023-02-18T02:02:04.004Z,-18.19
2023-02-18T02:07:06.929Z,-18.23
2023-02-18T02:12:15.791Z,-17.96
2023-02-18T02:17:35.461Z,-17.90
2023-02-18T02:23:15.440Z,-17.77
2023-02-18T02:28:51.562Z,-17.78
2023-02-18T02:34:00.345Z,-17.63
2023-02-18T02:39:27.240Z,-17.49
2023-02-18T02:44:40.184Z,-17.43
2023-02-18T02:49:42.679Z,-17.46
2023-02-18T02:54:45.526Z,-17.55
2023-02-18T02:59:53.163Z,-17.52
2023-02-18T03:05:29.929Z,-17.44
2023-02-18T03:10:48.969Z,-17.41
2023-02-18T03:16:05.145Z,-17.27
2023-02-18T03:21:26.464Z,-17.20
2023-02-18T03:26:31.198Z,-17.16
2023-02-18T03:31:35.465Z,-17.00
2023-02-18T03:36:38.923Z,-16.85
2023-02-18T03:41:43.056Z,-16.78
2023-02-18T03:46:46.296Z,-16.57
2023-02-18T03:51:49.382Z,-16.42
2023-02-18T03:56:52.149Z,-16.34
2023-02-18T04:01:54.864Z,-16.20
2023-02-18T04:06:57.664Z,-16.09
2023-02-18T04:12:00.407Z,-16.01
2023-02-18T04:17:03.106Z,-15.85
2023-02-18T04:22:05.822Z,-15.71
2023-02-18T04:27:08.747Z,-15.61
2023-02-18T04:32:11.640Z,-15.34
2023-02-18T04:37:14.381Z,-14.86
2023-02-18T04:42:17.079Z,-14.64
2023-02-18T04:47:19.784Z,-14.51
2023-02-18T04:52:22.494Z,-14.61
2023-02-18T04:57:25.175Z,-14.62
2023-02-18T05:02:27.811Z,-14.57
2023-02-18T05:07:30.486Z,-14.43
2023-02-18T05:12:33.245Z,-14.32
2023-02-18T05:17:36.185Z,-14.38
2023-02-18T05:22:39.481Z,-14.30
2023-02-18T05:27:42.149Z,-14.34
2023-02-18T05:32:44.862Z,-13.85
2023-02-18T05:37:47.539Z,-13.62
2023-02-18T05:42:50.304Z,-13.62
2023-02-18T05:47:52.986Z,-13.58
2023-02-18T05:52:55.739Z,-13.49
2023-02-18T05:57:58.490Z,-13.36
2023-02-18T06:03:01.304Z,-13.16
2023-02-18T06:08:04.111Z,-12.97
2023-02-18T06:13:11.581Z,-12.74
2023-02-18T06:18:14.646Z,-12.61
2023-02-18T06:23:18.786Z,-12.48
2023-02-18T06:28:21.676Z,-12.25
2023-02-18T06:33:24.659Z,-12.12
2023-02-18T06:38:27.700Z,-12.01
2023-02-18T06:43:30.540Z,-11.94
2023-02-18T06:48:36.084Z,-11.83
2023-02-18T06:53:38.767Z,-11.86
2023-02-18T06:58:42.933Z,-11.70
2023-02-18T07:03:45.466Z,-11.57
2023-02-18T07:08:48.192Z,-11.42
2023-02-18T07:13:53.709Z,-11.22
2023-02-18T07:18:56.480Z,-11.04
2023-02-18T07:23:59.279Z,-10.86
2023-02-18T07:29:01.956Z,-10.65
2023-02-18T07:34:04.714Z,-10.47
2023-02-18T07:39:07.458Z,-10.29
2023-02-18T07:44:10.199Z,-10.14
2023-02-18T07:49:15.633Z,-10.00
2023-02-18T07:54:21.034Z,-9.89
2023-02-18T07:59:23.984Z,-9.85
2023-02-18T08:04:26.701Z,-9.82
2023-02-18T08:09:29.522Z,-9.81
2023-02-18T08:14:32.258Z,-9.76
2023-02-18T08:19:35.040Z,-9.72
2023-02-18T08:24:40.472Z,-9.64
2023-02-18T08:29:43.165Z,-9.54
2023-02-18T08:34:45.880Z,-9.36
2023-02-18T08:39:48.640Z,-9.12
2023-02-18T08:44:51.277Z,-9.20
2023-02-18T08:49:54.693Z,-9.42
2023-02-18T08:54:57.435Z,-9.32
2023-02-18T09:00:00.171Z,-9.32
2023-02-18T09:05:02.932Z,-9.28
2023-02-18T09:10:10.469Z,-9.25
2023-02-18T09:15:16.097Z,-9.22
2023-02-18T09:20:20.227Z,-9.14
2023-02-18T09:25:22.973Z,-9.08
2023-02-18T09:30:25.955Z,-9.19
2023-02-18T09:35:30.984Z,-9.00
2023-02-18T09:40:39.048Z,-8.93
2023-02-18T09:45:43.237Z,-9.00
2023-02-18T09:50:53.086Z,-8.88
2023-02-18T09:55:57.599Z,-8.68
2023-02-18T10:01:14.468Z,-8.47
2023-02-18T10:06:22.716Z,-8.58
2023-02-18T10:11:32.555Z,-8.68
2023-02-18T10:16:37.016Z,-8.76
2023-02-18T10:21:39.532Z,-8.82
2023-02-18T10:26:42.918Z,-8.88
2023-02-18T10:32:09.551Z,-9.01
2023-02-18T10:37:24.336Z,-8.96
2023-02-18T10:42:40.680Z,-9.16
2023-02-18T10:47:55.657Z,-9.02
2023-02-18T10:53:03.337Z,-9.04
2023-02-18T10:58:24.631Z,-9.07
2023-02-18T11:03:48.563Z,-9.12
2023-02-18T11:08:51.253Z,-9.11
2023-02-18T11:14:00.401Z,-9.14
2023-02-18T11:19:04.784Z,-9.20
2023-02-18T11:24:10.535Z,-9.25
2023-02-18T11:29:21.771Z,-9.32
2023-02-18T11:34:28.963Z,-9.26
2023-02-18T11:39:32.744Z,-9.23
2023-02-18T11:44:59.642Z,-9.32
2023-02-18T11:50:11.569Z,-9.30
2023-02-18T11:55:20.866Z,-9.39
2023-02-18T12:00:45.834Z,-9.44
2023-02-18T12:05:49.475Z,-9.58
2023-02-18T12:10:55.210Z,-9.72
2023-02-18T12:16:23.914Z,-9.87
2023-02-18T12:21:29.646Z,-10.19
2023-02-18T12:26:55.110Z,-10.43
2023-02-18T12:32:10.868Z,-10.64
2023-02-18T12:37:51.603Z,-10.63
2023-02-18T12:43:07.940Z,-10.79
2023-02-18T12:48:32.842Z,-10.61
2023-02-18T12:53:41.435Z,-10.52
2023-02-18T12:58:51.147Z,-10.40
2023-02-18T13:04:12.656Z,-10.18
2023-02-18T13:09:40.166Z,-10.08
2023-02-18T13:14:56.290Z,-10.10
2023-02-18T13:20:07.913Z,-10.14
2023-02-18T13:25:13.872Z,-10.26
2023-02-18T13:30:28.018Z,-10.43
2023-02-18T13:35:52.184Z,-10.46
2023-02-18T13:40:56.753Z,-10.58
2023-02-18T13:46:10.152Z,-10.54
2023-02-18T13:51:18.192Z,-10.59
2023-02-18T13:56:22.379Z,-10.57
2023-02-18T14:01:42.303Z,-10.65
2023-02-18T14:07:25.232Z,-10.84
2023-02-18T14:12:57.441Z,-11.12
2023-02-18T14:18:15.259Z,-11.12
2023-02-18T14:23:21.537Z,-11.25
2023-02-18T14:28:39.354Z,-11.40
2023-02-18T14:34:08.509Z,-11.64
2023-02-18T14:39:29.784Z,-11.47
2023-02-18T14:45:00.272Z,-11.49
2023-02-18T14:50:04.920Z,-11.57
2023-02-18T14:55:17.428Z,-11.55
2023-02-18T15:00:32.820Z,-11.39
2023-02-18T15:05:38.643Z,-11.25
2023-02-18T15:10:58.557Z,-11.19
2023-02-18T15:16:04.403Z,-11.22
2023-02-18T15:21:20.345Z,-11.17
2023-02-18T15:26:23.116Z,-11.08
2023-02-18T15:31:31.760Z,-11.11
2023-02-18T15:36:50.815Z,-11.10
2023-02-18T15:42:00.060Z,-11.24
2023-02-18T15:47:10.772Z,-11.31
2023-02-18T15:52:16.298Z,-11.30
2023-02-18T15:57:19.754Z,-11.09
2023-02-18T16:02:25.108Z,-10.90
2023-02-18T16:07:30.515Z,-10.83
2023-02-18T16:12:34.060Z,-10.79
2023-02-18T16:17:37.240Z,-10.79
2023-02-18T16:22:51.062Z,-10.75
2023-02-18T16:28:24.375Z,-10.60
2023-02-18T16:33:29.440Z,-10.52
2023-02-18T16:38:32.274Z,-10.45
2023-02-18T16:43:35.068Z,-10.38
2023-02-18T16:48:41.001Z,-10.37
2023-02-18T16:53:44.524Z,-10.34
2023-02-18T16:58:47.259Z,-10.37
2023-02-18T17:03:50.100Z,-10.40
2023-02-18T17:08:53.305Z,-10.45
2023-02-18T17:13:58.721Z,-10.51
2023-02-18T17:19:01.576Z,-10.40
2023-02-18T17:24:04.880Z,-10.44
2023-02-18T17:29:07.711Z,-10.45
2023-02-18T17:34:15.344Z,-10.33
2023-02-18T17:39:18.625Z,-10.36
2023-02-18T17:44:24.082Z,-10.35
2023-02-18T17:49:26.773Z,-10.34
2023-02-18T17:54:29.552Z,-10.32
2023-02-18T17:59:32.480Z,-10.35
2023-02-18T18:04:35.177Z,-10.34
2023-02-18T18:09:38.043Z,-10.21
2023-02-18T18:14:41.584Z,-10.10
2023-02-18T18:19:44.203Z,-10.10
2023-02-18T18:24:47.052Z,-10.09
2023-02-18T18:29:49.896Z,-10.09
2023-02-18T18:34:52.732Z,-10.02
2023-02-18T18:39:55.473Z,-10.03
2023-02-18T18:45:00.850Z,-10.02
2023-02-18T18:50:03.555Z,-10.10
2023-02-18T18:55:19.208Z,-10.37
2023-02-18T19:00:34.330Z,-10.24
2023-02-18T19:05:39.421Z,-10.27
2023-02-18T19:10:44.125Z,-10.24
2023-02-18T19:15:47.398Z,-10.20
2023-02-18T19:20:50.186Z,-10.15
2023-02-18T19:25:52.902Z,-10.15
2023-02-18T19:30:55.962Z,-10.07
2023-02-18T19:35:58.705Z,-10.08
2023-02-18T19:41:15.054Z,-9.97
2023-02-18T19:46:19.029Z,-9.95
2023-02-18T19:51:21.951Z,-9.81
2023-02-18T19:56:25.416Z,-9.87
2023-02-18T20:01:28.205Z,-9.66
2023-02-18T20:06:31.028Z,-9.65
2023-02-18T20:11:33.699Z,-10.10
2023-02-18T20:16:36.580Z,-9.65
2023-02-18T20:21:39.557Z,-9.56
2023-02-18T20:26:42.207Z,-9.63
2023-02-18T20:31:45.084Z,-9.59
2023-02-18T20:36:50.137Z,-9.66
2023-02-18T20:41:52.876Z,-9.72
2023-02-18T20:46:55.623Z,-9.66
2023-02-18T20:51:58.354Z,-9.81
2023-02-18T20:57:02.211Z,-9.77
2023-02-18T21:02:05.186Z,-9.74
2023-02-18T21:07:07.900Z,-9.63
2023-02-18T21:12:11.379Z,-9.53
2023-02-18T21:17:14.216Z,-9.47
2023-02-18T21:22:16.975Z,-9.58
2023-02-18T21:27:19.718Z,-9.40
2023-02-18T21:32:22.599Z,-9.47
2023-02-18T21:37:25.384Z,-9.31
2023-02-18T21:42:28.118Z,-9.23
2023-02-18T21:47:30.847Z,-9.19
2023-02-18T21:52:34.475Z,-9.15
2023-02-18T21:57:37.519Z,-9.01
2023-02-18T22:02:40.201Z,-9.06
2023-02-18T22:07:42.838Z,-8.95
2023-02-18T22:12:45.790Z,-8.87
2023-02-18T22:17:48.439Z,-8.97
2023-02-18T22:22:51.158Z,-8.81
2023-02-18T22:27:53.870Z,-8.76
2023-02-18T22:32:56.555Z,-8.76
2023-02-18T22:37:59.382Z,-8.68
2023-02-18T22:43:02.077Z,-8.80
2023-02-18T22:48:05.166Z,-8.77
2023-02-18T22:53:07.881Z,-8.79
2023-02-18T22:58:10.576Z,-8.72
2023-02-18T23:03:13.274Z,-8.83
2023-02-18T23:08:16.399Z,-8.71
2023-02-18T23:13:19.123Z,-8.70
2023-02-18T23:18:21.897Z,-8.78
2023-02-18T23:23:24.557Z,-8.63
2023-02-18T23:28:27.919Z,-8.63
2023-02-18T23:33:30.681Z,-8.61
2023-02-18T23:38:33.368Z,-8.61
2023-02-18T23:43:36.013Z,-8.59
2023-02-18T23:48:38.740Z,-8.55
2023-02-18T23:53:42.063Z,-8.77
2023-02-18T23:58:46.800Z,-8.97
